sensor_id;sensor_type;location;lat;lon;timestamp;pressure;altitude;pressure_sealevel;temperature;humidity
64139;BME280;50435;43.700;-79.318;2023-02-13T00:00:11;99822.52;;;2.95;46.34
64139;BME280;50435;43.700;-79.318;2023-02-13T00:02:39;99820.42;;;2.83;46.47
64139;BME280;50435;43.700;-79.318;2023-02-13T00:05:07;99818.84;;;3.00;46.56
64139;BME280;50435;43.700;-79.318;2023-02-13T00:07:35;99815.34;;;2.99;46.41
64139;BME280;50435;43.700;-79.318;2023-02-13T00:10:02;99815.90;;;2.94;46.50
64139;BME280;50435;43.700;-79.318;2023-02-13T00:12:30;99813.54;;;3.43;46.49
64139;BME280;50435;43.700;-79.318;2023-02-13T00:14:58;99810.98;;;3.08;46.57
64139;BME280;50435;43.700;-79.318;2023-02-13T00:17:26;99810.05;;;2.72;46.67
64139;BME280;50435;43.700;-79.318;2023-02-13T00:19:54;99807.01;;;2.60;46.87
64139;BME280;50435;43.700;-79.318;2023-02-13T00:22:21;99805.83;;;2.82;46.89
64139;BME280;50435;43.700;-79.318;2023-02-13T00:24:49;99808.95;;;2.78;46.85
64139;BME280;50435;43.700;-79.318;2023-02-13T00:27:17;99804.33;;;2.42;47.04
64139;BME280;50435;43.700;-79.318;2023-02-13T00:29:44;99804.30;;;2.92;46.95
64139;BME280;50435;43.700;-79.318;2023-02-13T00:32:13;99805.16;;;2.39;47.04
64139;BME280;50435;43.700;-79.318;2023-02-13T00:34:40;99806.60;;;2.78;47.09
64139;BME280;50435;43.700;-79.318;2023-02-13T00:37:08;99806.29;;;2.75;47.14
64139;BME280;50435;43.700;-79.318;2023-02-13T00:39:35;99805.57;;;2.40;47.21
64139;BME280;50435;43.700;-79.318;2023-02-13T00:42:03;99808.16;;;2.61;47.24
64139;BME280;50435;43.700;-79.318;2023-02-13T00:44:30;99810.36;;;2.30;47.30
64139;BME280;50435;43.700;-79.318;2023-02-13T00:46:58;99806.73;;;2.31;47.26
64139;BME280;50435;43.700;-79.318;2023-02-13T00:49:25;99811.87;;;2.52;47.23
64139;BME280;50435;43.700;-79.318;2023-02-13T00:51:53;99815.94;;;2.49;47.34
64139;BME280;50435;43.700;-79.318;2023-02-13T00:54:20;99816.48;;;2.40;47.38
64139;BME280;50435;43.700;-79.318;2023-02-13T00:56:48;99812.74;;;2.34;47.44
64139;BME280;50435;43.700;-79.318;2023-02-13T00:59:15;99807.32;;;2.33;47.40
64139;BME280;50435;43.700;-79.318;2023-02-13T01:01:42;99810.55;;;1.97;47.53
64139;BME280;50435;43.700;-79.318;2023-02-13T01:04:10;99817.04;;;2.28;47.41
64139;BME280;50435;43.700;-79.318;2023-02-13T01:06:38;99817.53;;;2.10;47.74
64139;BME280;50435;43.700;-79.318;2023-02-13T01:09:05;99827.52;;;2.02;47.86
64139;BME280;50435;43.700;-79.318;2023-02-13T01:11:33;99831.84;;;2.00;47.90
64139;BME280;50435;43.700;-79.318;2023-02-13T01:14:01;99831.69;;;1.99;47.83
64139;BME280;50435;43.700;-79.318;2023-02-13T01:16:28;99830.92;;;1.54;48.14
64139;BME280;50435;43.700;-79.318;2023-02-13T01:18:56;99822.25;;;1.83;48.03
64139;BME280;50435;43.700;-79.318;2023-02-13T01:21:23;99817.78;;;1.83;47.99
64139;BME280;50435;43.700;-79.318;2023-02-13T01:23:50;99814.25;;;1.79;47.99
64139;BME280;50435;43.700;-79.318;2023-02-13T01:26:20;99812.91;;;1.52;48.13
64139;BME280;50435;43.700;-79.318;2023-02-13T01:28:51;99812.49;;;1.73;48.14
64139;BME280;50435;43.700;-79.318;2023-02-13T01:31:18;99807.74;;;1.66;48.25
64139;BME280;50435;43.700;-79.318;2023-02-13T01:33:46;99811.96;;;2.08;48.22
64139;BME280;50435;43.700;-79.318;2023-02-13T01:36:14;99814.12;;;1.54;48.48
64139;BME280;50435;43.700;-79.318;2023-02-13T01:38:41;99812.96;;;1.43;48.61
64139;BME280;50435;43.700;-79.318;2023-02-13T01:41:10;99811.25;;;1.42;48.74
64139;BME280;50435;43.700;-79.318;2023-02-13T01:43:48;99801.75;;;1.77;48.81
64139;BME280;50435;43.700;-79.318;2023-02-13T01:46:21;99799.25;;;1.51;48.88
64139;BME280;50435;43.700;-79.318;2023-02-13T01:48:51;99793.51;;;1.50;48.99
64139;BME280;50435;43.700;-79.318;2023-02-13T01:51:23;99789.72;;;1.23;48.98
64139;BME280;50435;43.700;-79.318;2023-02-13T01:53:54;99793.12;;;1.18;49.14
64139;BME280;50435;43.700;-79.318;2023-02-13T01:56:25;99792.34;;;1.35;49.17
64139;BME280;50435;43.700;-79.318;2023-02-13T01:58:57;99781.70;;;1.38;49.19
64139;BME280;50435;43.700;-79.318;2023-02-13T02:01:27;99782.04;;;1.10;49.12
64139;BME280;50435;43.700;-79.318;2023-02-13T02:03:57;99777.99;;;0.95;49.53
64139;BME280;50435;43.700;-79.318;2023-02-13T02:06:29;99773.24;;;1.18;49.47
64139;BME280;50435;43.700;-79.318;2023-02-13T02:09:02;99771.10;;;1.35;49.61
64139;BME280;50435;43.700;-79.318;2023-02-13T02:11:37;99779.84;;;0.79;49.79
64139;BME280;50435;43.700;-79.318;2023-02-13T02:14:07;99777.06;;;1.03;49.70
64139;BME280;50435;43.700;-79.318;2023-02-13T02:16:35;99775.62;;;1.22;49.75
64139;BME280;50435;43.700;-79.318;2023-02-13T02:19:07;99775.84;;;1.15;49.90
64139;BME280;50435;43.700;-79.318;2023-02-13T02:23:42;99765.63;;;1.08;49.93
64139;BME280;50435;43.700;-79.318;2023-02-13T02:26:47;99759.60;;;0.86;49.95
64139;BME280;50435;43.700;-79.318;2023-02-13T02:32:27;99750.00;;;0.88;50.18
64139;BME280;50435;43.700;-79.318;2023-02-13T02:35:08;99740.53;;;0.76;50.05
64139;BME280;50435;43.700;-79.318;2023-02-13T02:37:56;99742.81;;;0.65;50.27
64139;BME280;50435;43.700;-79.318;2023-02-13T02:40:33;99738.58;;;0.51;50.50
64139;BME280;50435;43.700;-79.318;2023-02-13T02:43:15;99738.69;;;0.43;50.53
64139;BME280;50435;43.700;-79.318;2023-02-13T02:45:52;99739.42;;;0.64;50.59
64139;BME280;50435;43.700;-79.318;2023-02-13T02:48:27;99739.36;;;0.61;50.57
64139;BME280;50435;43.700;-79.318;2023-02-13T02:50:59;99741.87;;;0.49;50.80
64139;BME280;50435;43.700;-79.318;2023-02-13T02:53:36;99741.00;;;0.52;50.68
64139;BME280;50435;43.700;-79.318;2023-02-13T02:56:10;99738.35;;;0.23;50.91
64139;BME280;50435;43.700;-79.318;2023-02-13T02:58:44;99731.11;;;0.49;50.77
64139;BME280;50435;43.700;-79.318;2023-02-13T03:01:19;99724.63;;;0.36;50.92
64139;BME280;50435;43.700;-79.318;2023-02-13T03:03:49;99726.95;;;0.44;50.72
64139;BME280;50435;43.700;-79.318;2023-02-13T03:06:21;99724.73;;;0.34;50.82
64139;BME280;50435;43.700;-79.318;2023-02-13T03:08:59;99713.88;;;0.36;50.69
64139;BME280;50435;43.700;-79.318;2023-02-13T03:11:28;99706.85;;;0.22;51.21
64139;BME280;50435;43.700;-79.318;2023-02-13T03:13:56;99705.85;;;0.36;50.81
64139;BME280;50435;43.700;-79.318;2023-02-13T03:16:26;99703.01;;;0.12;51.10
64139;BME280;50435;43.700;-79.318;2023-02-13T03:18:57;99706.36;;;0.27;50.90
64139;BME280;50435;43.700;-79.318;2023-02-13T03:21:34;99707.90;;;-0.18;51.35
64139;BME280;50435;43.700;-79.318;2023-02-13T03:24:10;99705.75;;;0.23;50.92
64139;BME280;50435;43.700;-79.318;2023-02-13T03:26:46;99701.09;;;0.19;50.83
64139;BME280;50435;43.700;-79.318;2023-02-13T03:29:31;99703.25;;;0.16;50.94
64139;BME280;50435;43.700;-79.318;2023-02-13T03:32:08;99705.03;;;-0.14;51.09
64139;BME280;50435;43.700;-79.318;2023-02-13T03:34:43;99700.58;;;0.15;50.87
64139;BME280;50435;43.700;-79.318;2023-02-13T03:37:15;99698.03;;;0.13;50.95
64139;BME280;50435;43.700;-79.318;2023-02-13T03:39:51;99698.14;;;0.21;50.55
64139;BME280;50435;43.700;-79.318;2023-02-13T03:42:29;99696.33;;;0.20;50.73
64139;BME280;50435;43.700;-79.318;2023-02-13T03:45:01;99690.16;;;0.17;50.83
64139;BME280;50435;43.700;-79.318;2023-02-13T03:47:29;99688.54;;;0.01;51.18
64139;BME280;50435;43.700;-79.318;2023-02-13T03:49:57;99681.95;;;0.10;51.02
64139;BME280;50435;43.700;-79.318;2023-02-13T03:52:30;99677.87;;;-0.09;51.11
64139;BME280;50435;43.700;-79.318;2023-02-13T03:55:02;99671.62;;;0.10;50.70
64139;BME280;50435;43.700;-79.318;2023-02-13T03:57:32;99667.82;;;-0.04;51.15
64139;BME280;50435;43.700;-79.318;2023-02-13T04:00:06;99662.36;;;-0.22;51.42
64139;BME280;50435;43.700;-79.318;2023-02-13T04:02:39;99659.66;;;-0.02;51.09
64139;BME280;50435;43.700;-79.318;2023-02-13T04:05:13;99656.63;;;-0.09;51.03
64139;BME280;50435;43.700;-79.318;2023-02-13T04:07:41;99649.70;;;-0.12;50.83
64139;BME280;50435;43.700;-79.318;2023-02-13T04:10:10;99646.82;;;-0.14;50.95
64139;BME280;50435;43.700;-79.318;2023-02-13T04:12:45;99643.88;;;-0.07;51.02
64139;BME280;50435;43.700;-79.318;2023-02-13T04:15:17;99643.77;;;-0.20;51.15
64139;BME280;50435;43.700;-79.318;2023-02-13T04:17:51;99637.38;;;-0.15;50.74
64139;BME280;50435;43.700;-79.318;2023-02-13T04:20:20;99630.98;;;-0.10;50.93
64139;BME280;50435;43.700;-79.318;2023-02-13T04:22:47;99623.84;;;-0.26;51.11
64139;BME280;50435;43.700;-79.318;2023-02-13T04:25:16;99617.61;;;-0.09;50.71
64139;BME280;50435;43.700;-79.318;2023-02-13T04:27:45;99617.09;;;-0.09;51.17
64139;BME280;50435;43.700;-79.318;2023-02-13T04:30:13;99611.70;;;-0.14;50.81
64139;BME280;50435;43.700;-79.318;2023-02-13T04:32:40;99612.56;;;-0.25;51.02
64139;BME280;50435;43.700;-79.318;2023-02-13T04:35:08;99615.99;;;-0.32;50.96
64139;BME280;50435;43.700;-79.318;2023-02-13T04:37:35;99620.48;;;-0.28;50.93
64139;BME280;50435;43.700;-79.318;2023-02-13T04:40:03;99623.09;;;-0.16;51.19
64139;BME280;50435;43.700;-79.318;2023-02-13T04:42:31;99620.09;;;-0.27;50.83
64139;BME280;50435;43.700;-79.318;2023-02-13T04:44:58;99619.92;;;-0.29;50.84
64139;BME280;50435;43.700;-79.318;2023-02-13T04:47:25;99619.75;;;-0.29;50.87
64139;BME280;50435;43.700;-79.318;2023-02-13T04:49:52;99622.98;;;-0.19;50.66
64139;BME280;50435;43.700;-79.318;2023-02-13T04:52:20;99619.50;;;-0.38;50.69
64139;BME280;50435;43.700;-79.318;2023-02-13T04:54:48;99622.66;;;-0.51;51.13
64139;BME280;50435;43.700;-79.318;2023-02-13T04:57:15;99616.65;;;-0.49;51.12
64139;BME280;50435;43.700;-79.318;2023-02-13T04:59:43;99621.61;;;-0.17;50.83
64139;BME280;50435;43.700;-79.318;2023-02-13T05:02:10;99623.49;;;-0.49;51.04
64139;BME280;50435;43.700;-79.318;2023-02-13T05:04:38;99612.84;;;-0.25;51.20
64139;BME280;50435;43.700;-79.318;2023-02-13T05:07:05;99613.12;;;-0.58;51.33
64139;BME280;50435;43.700;-79.318;2023-02-13T05:09:33;99602.74;;;-0.63;51.25
64139;BME280;50435;43.700;-79.318;2023-02-13T05:12:00;99602.06;;;-0.27;50.95
64139;BME280;50435;43.700;-79.318;2023-02-13T05:14:27;99598.98;;;-0.66;51.22
64139;BME280;50435;43.700;-79.318;2023-02-13T05:16:55;99593.44;;;-0.74;51.40
64139;BME280;50435;43.700;-79.318;2023-02-13T05:19:23;99591.39;;;-0.39;51.46
64139;BME280;50435;43.700;-79.318;2023-02-13T05:21:50;99585.54;;;-0.61;51.67
64139;BME280;50435;43.700;-79.318;2023-02-13T05:24:17;99584.66;;;-0.33;51.42
64139;BME280;50435;43.700;-79.318;2023-02-13T05:26:45;99577.89;;;-0.79;51.29
64139;BME280;50435;43.700;-79.318;2023-02-13T05:29:13;99575.82;;;-0.62;51.35
64139;BME280;50435;43.700;-79.318;2023-02-13T05:31:40;99570.96;;;-0.66;51.58
64139;BME280;50435;43.700;-79.318;2023-02-13T05:34:07;99569.01;;;-0.49;51.56
64139;BME280;50435;43.700;-79.318;2023-02-13T05:36:35;99563.60;;;-0.69;51.59
64139;BME280;50435;43.700;-79.318;2023-02-13T05:39:02;99561.74;;;-0.43;51.30
64139;BME280;50435;43.700;-79.318;2023-02-13T05:41:30;99558.79;;;-0.48;51.34
64139;BME280;50435;43.700;-79.318;2023-02-13T05:43:57;99558.48;;;-0.60;51.59
64139;BME280;50435;43.700;-79.318;2023-02-13T05:46:24;99559.07;;;-0.66;51.31
64139;BME280;50435;43.700;-79.318;2023-02-13T05:48:52;99562.71;;;-0.84;51.57
64139;BME280;50435;43.700;-79.318;2023-02-13T05:51:20;99556.58;;;-0.53;51.49
64139;BME280;50435;43.700;-79.318;2023-02-13T05:53:48;99562.46;;;-1.04;51.27
64139;BME280;50435;43.700;-79.318;2023-02-13T05:56:16;99563.26;;;-0.57;51.64
64139;BME280;50435;43.700;-79.318;2023-02-13T05:58:43;99559.38;;;-0.79;51.38
64139;BME280;50435;43.700;-79.318;2023-02-13T06:01:11;99556.23;;;-0.66;51.67
64139;BME280;50435;43.700;-79.318;2023-02-13T06:03:39;99559.58;;;-0.53;51.31
64139;BME280;50435;43.700;-79.318;2023-02-13T06:06:06;99561.52;;;-0.56;51.32
64139;BME280;50435;43.700;-79.318;2023-02-13T06:08:34;99556.24;;;-0.47;51.08
64139;BME280;50435;43.700;-79.318;2023-02-13T06:11:02;99562.83;;;-0.63;51.46
64139;BME280;50435;43.700;-79.318;2023-02-13T06:13:30;99564.77;;;-0.55;51.27
64139;BME280;50435;43.700;-79.318;2023-02-13T06:15:57;99559.27;;;-0.90;51.44
64139;BME280;50435;43.700;-79.318;2023-02-13T06:18:24;99551.80;;;-0.59;51.39
64139;BME280;50435;43.700;-79.318;2023-02-13T06:20:52;99543.75;;;-0.76;51.62
64139;BME280;50435;43.700;-79.318;2023-02-13T06:23:19;99532.78;;;-1.22;51.48
64139;BME280;50435;43.700;-79.318;2023-02-13T06:25:47;99527.65;;;-0.75;51.40
64139;BME280;50435;43.700;-79.318;2023-02-13T06:28:14;99525.81;;;-0.85;51.94
64139;BME280;50435;43.700;-79.318;2023-02-13T06:30:42;99529.23;;;-1.12;51.89
64139;BME280;50435;43.700;-79.318;2023-02-13T06:33:09;99529.30;;;-0.85;51.81
64139;BME280;50435;43.700;-79.318;2023-02-13T06:35:37;99522.26;;;-0.82;51.65
64139;BME280;50435;43.700;-79.318;2023-02-13T06:38:04;99515.31;;;-0.84;51.54
64139;BME280;50435;43.700;-79.318;2023-02-13T06:40:31;99512.82;;;-0.97;51.65
64139;BME280;50435;43.700;-79.318;2023-02-13T06:42:59;99504.02;;;-0.75;51.38
64139;BME280;50435;43.700;-79.318;2023-02-13T06:45:27;99493.14;;;-0.79;51.37
64139;BME280;50435;43.700;-79.318;2023-02-13T06:47:54;99493.39;;;-0.81;51.32
64139;BME280;50435;43.700;-79.318;2023-02-13T06:50:22;99492.90;;;-0.78;51.46
64139;BME280;50435;43.700;-79.318;2023-02-13T06:52:51;99490.83;;;-0.68;51.29
64139;BME280;50435;43.700;-79.318;2023-02-13T06:55:18;99493.66;;;-1.03;51.68
64139;BME280;50435;43.700;-79.318;2023-02-13T06:57:46;99491.16;;;-1.13;51.69
64139;BME280;50435;43.700;-79.318;2023-02-13T07:00:16;99491.98;;;-1.05;51.61
64139;BME280;50435;43.700;-79.318;2023-02-13T07:02:45;99484.08;;;-0.99;51.79
64139;BME280;50435;43.700;-79.318;2023-02-13T07:05:13;99480.61;;;-1.17;51.88
64139;BME280;50435;43.700;-79.318;2023-02-13T07:07:41;99478.81;;;-1.21;51.97
64139;BME280;50435;43.700;-79.318;2023-02-13T07:10:11;99472.67;;;-1.03;51.64
64139;BME280;50435;43.700;-79.318;2023-02-13T07:12:39;99466.98;;;-1.31;51.80
64139;BME280;50435;43.700;-79.318;2023-02-13T07:15:07;99465.00;;;-0.82;51.38
64139;BME280;50435;43.700;-79.318;2023-02-13T07:17:35;99467.12;;;-1.00;51.78
64139;BME280;50435;43.700;-79.318;2023-02-13T07:20:03;99459.57;;;-0.98;51.66
64139;BME280;50435;43.700;-79.318;2023-02-13T07:22:30;99451.49;;;-0.89;51.64
64139;BME280;50435;43.700;-79.318;2023-02-13T07:24:57;99448.48;;;-0.76;51.51
64139;BME280;50435;43.700;-79.318;2023-02-13T07:27:25;99446.98;;;-0.76;51.49
64139;BME280;50435;43.700;-79.318;2023-02-13T07:29:52;99443.86;;;-0.75;51.45
64139;BME280;50435;43.700;-79.318;2023-02-13T07:32:20;99437.51;;;-0.69;51.52
64139;BME280;50435;43.700;-79.318;2023-02-13T07:34:47;99432.40;;;-0.97;51.52
64139;BME280;50435;43.700;-79.318;2023-02-13T07:37:14;99426.81;;;-0.61;51.40
64139;BME280;50435;43.700;-79.318;2023-02-13T07:39:42;99423.59;;;-0.59;51.29
64139;BME280;50435;43.700;-79.318;2023-02-13T07:42:09;99415.67;;;-0.96;51.56
64139;BME280;50435;43.700;-79.318;2023-02-13T07:44:37;99413.89;;;-0.62;51.51
64139;BME280;50435;43.700;-79.318;2023-02-13T07:47:04;99407.61;;;-0.82;51.60
64139;BME280;50435;43.700;-79.318;2023-02-13T07:49:31;99411.26;;;-0.67;51.32
64139;BME280;50435;43.700;-79.318;2023-02-13T07:51:58;99409.65;;;-0.65;51.78
64139;BME280;50435;43.700;-79.318;2023-02-13T07:54:26;99404.32;;;-0.50;51.41
64139;BME280;50435;43.700;-79.318;2023-02-13T07:56:53;99401.14;;;-0.39;51.36
64139;BME280;50435;43.700;-79.318;2023-02-13T07:59:20;99396.31;;;-0.62;51.77
64139;BME280;50435;43.700;-79.318;2023-02-13T08:01:48;99391.80;;;-0.57;51.28
64139;BME280;50435;43.700;-79.318;2023-02-13T08:04:16;99387.83;;;-0.63;51.65
64139;BME280;50435;43.700;-79.318;2023-02-13T08:06:43;99389.53;;;-0.54;51.21
64139;BME280;50435;43.700;-79.318;2023-02-13T08:09:18;99385.85;;;-0.94;51.26
64139;BME280;50435;43.700;-79.318;2023-02-13T08:11:46;99384.44;;;-0.76;51.23
64139;BME280;50435;43.700;-79.318;2023-02-13T08:14:13;99379.59;;;-0.54;51.86
64139;BME280;50435;43.700;-79.318;2023-02-13T08:16:41;99375.91;;;-0.58;52.10
64139;BME280;50435;43.700;-79.318;2023-02-13T08:19:09;99369.41;;;-0.53;51.64
64139;BME280;50435;43.700;-79.318;2023-02-13T08:21:36;99366.86;;;-0.62;51.67
64139;BME280;50435;43.700;-79.318;2023-02-13T08:24:04;99366.60;;;-0.59;52.04
64139;BME280;50435;43.700;-79.318;2023-02-13T08:26:31;99366.35;;;-0.70;52.49
64139;BME280;50435;43.700;-79.318;2023-02-13T08:28:59;99363.59;;;-0.75;52.50
64139;BME280;50435;43.700;-79.318;2023-02-13T08:31:27;99364.07;;;-0.62;52.36
64139;BME280;50435;43.700;-79.318;2023-02-13T08:33:55;99363.74;;;-0.82;52.81
64139;BME280;50435;43.700;-79.318;2023-02-13T08:36:23;99359.02;;;-0.67;52.48
64139;BME280;50435;43.700;-79.318;2023-02-13T08:38:51;99358.96;;;-0.82;53.06
64139;BME280;50435;43.700;-79.318;2023-02-13T08:41:18;99357.22;;;-0.81;53.03
64139;BME280;50435;43.700;-79.318;2023-02-13T08:43:45;99353.80;;;-0.79;52.98
64139;BME280;50435;43.700;-79.318;2023-02-13T08:46:12;99349.66;;;-0.72;52.87
64139;BME280;50435;43.700;-79.318;2023-02-13T08:48:39;99342.80;;;-0.72;52.68
64139;BME280;50435;43.700;-79.318;2023-02-13T08:51:08;99344.03;;;-0.74;53.14
64139;BME280;50435;43.700;-79.318;2023-02-13T08:53:36;99340.30;;;-0.73;53.09
64139;BME280;50435;43.700;-79.318;2023-02-13T08:56:05;99328.75;;;-0.79;53.25
64139;BME280;50435;43.700;-79.318;2023-02-13T08:58:32;99332.90;;;-0.74;53.10
64139;BME280;50435;43.700;-79.318;2023-02-13T09:01:02;99330.20;;;-0.68;52.91
64139;BME280;50435;43.700;-79.318;2023-02-13T09:03:30;99330.55;;;-0.92;52.95
64139;BME280;50435;43.700;-79.318;2023-02-13T09:05:58;99329.26;;;-0.67;52.87
64139;BME280;50435;43.700;-79.318;2023-02-13T09:08:26;99326.06;;;-0.88;52.77
64139;BME280;50435;43.700;-79.318;2023-02-13T09:10:56;99328.14;;;-1.11;52.70
64139;BME280;50435;43.700;-79.318;2023-02-13T09:13:23;99314.21;;;-0.67;52.90
64139;BME280;50435;43.700;-79.318;2023-02-13T09:15:51;99306.43;;;-0.82;52.45
64139;BME280;50435;43.700;-79.318;2023-02-13T09:18:19;99304.31;;;-1.10;52.65
64139;BME280;50435;43.700;-79.318;2023-02-13T09:20:47;99309.74;;;-0.74;52.48
64139;BME280;50435;43.700;-79.318;2023-02-13T09:23:14;99307.93;;;-0.60;52.68
64139;BME280;50435;43.700;-79.318;2023-02-13T09:25:41;99305.48;;;-0.61;52.89
64139;BME280;50435;43.700;-79.318;2023-02-13T09:28:09;99308.52;;;-0.96;52.52
64139;BME280;50435;43.700;-79.318;2023-02-13T09:30:37;99308.72;;;-1.03;52.67
64139;BME280;50435;43.700;-79.318;2023-02-13T09:33:09;99309.44;;;-0.48;52.70
64139;BME280;50435;43.700;-79.318;2023-02-13T09:35:37;99308.16;;;-0.71;52.64
64139;BME280;50435;43.700;-79.318;2023-02-13T09:38:04;99308.52;;;-0.80;53.04
64139;BME280;50435;43.700;-79.318;2023-02-13T09:40:35;99299.74;;;-1.05;53.15
64139;BME280;50435;43.700;-79.318;2023-02-13T09:43:09;99295.62;;;-0.67;52.70
64139;BME280;50435;43.700;-79.318;2023-02-13T09:45:38;99288.53;;;-0.45;52.83
64139;BME280;50435;43.700;-79.318;2023-02-13T09:48:09;99290.76;;;-0.59;52.74
64139;BME280;50435;43.700;-79.318;2023-02-13T09:50:41;99287.12;;;-0.57;52.69
64139;BME280;50435;43.700;-79.318;2023-02-13T09:53:15;99283.03;;;-0.37;52.54
64139;BME280;50435;43.700;-79.318;2023-02-13T09:55:47;99283.09;;;-0.55;52.55
64139;BME280;50435;43.700;-79.318;2023-02-13T09:58:25;99274.48;;;-0.21;52.23
64139;BME280;50435;43.700;-79.318;2023-02-13T10:00:57;99271.69;;;-0.03;51.83
64139;BME280;50435;43.700;-79.318;2023-02-13T10:03:31;99274.82;;;-0.61;51.82
64139;BME280;50435;43.700;-79.318;2023-02-13T10:06:06;99274.43;;;-0.60;51.98
64139;BME280;50435;43.700;-79.318;2023-02-13T10:08:45;99270.10;;;-0.57;51.87
64139;BME280;50435;43.700;-79.318;2023-02-13T10:11:28;99272.32;;;-0.48;51.60
64139;BME280;50435;43.700;-79.318;2023-02-13T10:14:05;99275.46;;;-0.33;51.20
64139;BME280;50435;43.700;-79.318;2023-02-13T10:16:37;99267.72;;;-0.03;51.39
64139;BME280;50435;43.700;-79.318;2023-02-13T10:19:17;99264.01;;;-0.31;51.19
64139;BME280;50435;43.700;-79.318;2023-02-13T10:21:50;99255.59;;;-0.23;51.03
64139;BME280;50435;43.700;-79.318;2023-02-13T10:24:27;99251.15;;;-0.20;50.88
64139;BME280;50435;43.700;-79.318;2023-02-13T10:26:58;99245.78;;;-0.03;50.71
64139;BME280;50435;43.700;-79.318;2023-02-13T10:29:36;99242.92;;;0.15;50.46
64139;BME280;50435;43.700;-79.318;2023-02-13T10:32:09;99235.42;;;-0.15;50.75
64139;BME280;50435;43.700;-79.318;2023-02-13T10:34:43;99238.35;;;-0.07;50.38
64139;BME280;50435;43.700;-79.318;2023-02-13T10:37:14;99232.68;;;-0.17;50.73
64139;BME280;50435;43.700;-79.318;2023-02-13T10:39:45;99232.27;;;-0.11;50.60
64139;BME280;50435;43.700;-79.318;2023-02-13T10:42:20;99224.93;;;0.17;50.65
64139;BME280;50435;43.700;-79.318;2023-02-13T10:44:57;99217.58;;;-0.13;50.66
64139;BME280;50435;43.700;-79.318;2023-02-13T10:47:41;99216.99;;;0.09;50.81
64139;BME280;50435;43.700;-79.318;2023-02-13T10:50:18;99217.55;;;0.19;50.52
64139;BME280;50435;43.700;-79.318;2023-02-13T10:52:54;99219.54;;;0.13;50.72
64139;BME280;50435;43.700;-79.318;2023-02-13T10:56:05;99217.42;;;0.38;50.62
64139;BME280;50435;43.700;-79.318;2023-02-13T10:58:46;99212.61;;;-0.02;50.78
64139;BME280;50435;43.700;-79.318;2023-02-13T11:01:21;99205.30;;;0.27;50.64
64139;BME280;50435;43.700;-79.318;2023-02-13T11:04:03;99199.76;;;-0.05;51.52
64139;BME280;50435;43.700;-79.318;2023-02-13T11:06:32;99198.26;;;0.01;51.77
64139;BME280;50435;43.700;-79.318;2023-02-13T11:09:01;99189.52;;;0.20;51.36
64139;BME280;50435;43.700;-79.318;2023-02-13T11:11:29;99184.86;;;-0.08;51.39
64139;BME280;50435;43.700;-79.318;2023-02-13T11:14:12;99190.48;;;-0.28;51.73
64139;BME280;50435;43.700;-79.318;2023-02-13T11:16:46;99187.23;;;-0.42;52.32
64139;BME280;50435;43.700;-79.318;2023-02-13T11:19:19;99181.27;;;-0.13;51.61
64139;BME280;50435;43.700;-79.318;2023-02-13T11:21:53;99175.97;;;0.09;51.97
64139;BME280;50435;43.700;-79.318;2023-02-13T11:24:22;99174.75;;;0.25;51.65
64139;BME280;50435;43.700;-79.318;2023-02-13T11:26:53;99168.02;;;-0.06;51.59
64139;BME280;50435;43.700;-79.318;2023-02-13T11:29:24;99160.81;;;-0.14;51.94
64139;BME280;50435;43.700;-79.318;2023-02-13T11:32:26;99156.95;;;0.06;51.90
64139;BME280;50435;43.700;-79.318;2023-02-13T11:34:54;99157.15;;;-0.10;51.81
64139;BME280;50435;43.700;-79.318;2023-02-13T11:37:24;99155.75;;;-0.12;51.76
64139;BME280;50435;43.700;-79.318;2023-02-13T11:39:54;99159.73;;;0.12;52.16
64139;BME280;50435;43.700;-79.318;2023-02-13T11:42:31;99158.85;;;-0.09;51.67
64139;BME280;50435;43.700;-79.318;2023-02-13T11:45:03;99149.37;;;-0.25;52.02
64139;BME280;50435;43.700;-79.318;2023-02-13T11:47:34;99146.29;;;-0.27;51.88
64139;BME280;50435;43.700;-79.318;2023-02-13T11:50:04;99143.29;;;-0.23;51.90
64139;BME280;50435;43.700;-79.318;2023-02-13T11:52:34;99140.64;;;-0.02;51.93
64139;BME280;50435;43.700;-79.318;2023-02-13T11:57:56;99132.43;;;0.01;52.19
64139;BME280;50435;43.700;-79.318;2023-02-13T12:00:30;99123.17;;;-0.17;52.17
64139;BME280;50435;43.700;-79.318;2023-02-13T12:02:58;99120.96;;;-0.37;52.13
64139;BME280;50435;43.700;-79.318;2023-02-13T12:05:27;99117.95;;;-0.03;52.21
64139;BME280;50435;43.700;-79.318;2023-02-13T12:07:59;99112.99;;;-0.46;52.37
64139;BME280;50435;43.700;-79.318;2023-02-13T12:10:28;99108.03;;;-0.13;52.34
64139;BME280;50435;43.700;-79.318;2023-02-13T12:13:01;99107.88;;;-0.00;52.10
64139;BME280;50435;43.700;-79.318;2023-02-13T12:15:34;99109.07;;;-0.62;52.43
64139;BME280;50435;43.700;-79.318;2023-02-13T12:18:08;99112.11;;;-0.17;52.28
64139;BME280;50435;43.700;-79.318;2023-02-13T12:20:43;99115.86;;;0.03;52.08
64139;BME280;50435;43.700;-79.318;2023-02-13T12:23:23;99118.71;;;-0.41;51.79
64139;BME280;50435;43.700;-79.318;2023-02-13T12:26:12;99119.08;;;-0.08;52.09
64139;BME280;50435;43.700;-79.318;2023-02-13T12:28:57;99124.04;;;-0.25;52.51
64139;BME280;50435;43.700;-79.318;2023-02-13T12:31:39;99126.21;;;-0.33;52.09
64139;BME280;50435;43.700;-79.318;2023-02-13T12:34:26;99134.58;;;-0.17;52.36
64139;BME280;50435;43.700;-79.318;2023-02-13T12:37:10;99130.11;;;-0.30;51.88
64139;BME280;50435;43.700;-79.318;2023-02-13T12:39:51;99125.87;;;-0.48;51.81
64139;BME280;50435;43.700;-79.318;2023-02-13T12:42:33;99124.56;;;-0.78;52.23
64139;BME280;50435;43.700;-79.318;2023-02-13T12:45:19;99123.87;;;-0.16;52.25
64139;BME280;50435;43.700;-79.318;2023-02-13T12:47:59;99118.40;;;-0.17;52.09
64139;BME280;50435;43.700;-79.318;2023-02-13T12:50:40;99115.67;;;-0.19;52.09
64139;BME280;50435;43.700;-79.318;2023-02-13T12:53:21;99112.44;;;-0.33;51.70
64139;BME280;50435;43.700;-79.318;2023-02-13T12:56:02;99110.14;;;-0.37;51.89
64139;BME280;50435;43.700;-79.318;2023-02-13T12:58:48;99109.86;;;-0.19;51.89
64139;BME280;50435;43.700;-79.318;2023-02-13T13:01:31;99116.40;;;-0.18;51.97
64139;BME280;50435;43.700;-79.318;2023-02-13T13:04:15;99117.64;;;-0.43;51.97
64139;BME280;50435;43.700;-79.318;2023-02-13T13:06:54;99109.16;;;-0.44;51.83
64139;BME280;50435;43.700;-79.318;2023-02-13T13:09:39;99102.12;;;-0.06;51.73